sensor_id;sensor_type;location;lat;lon;timestamp;P1;durP1;ratioP1;P2;durP2;ratioP2
4758;SDS011;2393;50.560;12.636;2023-05-10T00:00:16;2.63;;;2.30;;
4758;SDS011;2393;50.560;12.636;2023-05-10T00:02:44;3.23;;;2.67;;
4758;SDS011;2393;50.560;12.636;2023-05-10T00:05:14;1.67;;;1.57;;
4758;SDS011;2393;50.560;12.636;2023-05-10T00:07:42;4.07;;;2.70;;
4758;SDS011;2393;50.560;12.636;2023-05-10T00:10:11;2.33;;;2.20;;
4758;SDS011;2393;50.560;12.636;2023-05-10T00:12:39;2.97;;;2.50;;
4758;SDS011;2393;50.560;12.636;2023-05-10T00:15:08;3.20;;;2.33;;
4758;SDS011;2393;50.560;12.636;2023-05-10T00:17:36;9.70;;;2.90;;
4758;SDS011;2393;50.560;12.636;2023-05-10T00:20:05;2.60;;;2.40;;
4758;SDS011;2393;50.560;12.636;2023-05-10T00:22:35;2.13;;;1.87;;
4758;SDS011;2393;50.560;12.636;2023-05-10T00:25:03;5.43;;;2.30;;
4758;SDS011;2393;50.560;12.636;2023-05-10T00:27:33;2.63;;;2.43;;
4758;SDS011;2393;50.560;12.636;2023-05-10T00:30:01;2.33;;;2.13;;
4758;SDS011;2393;50.560;12.636;2023-05-10T00:32:29;5.53;;;2.43;;
4758;SDS011;2393;50.560;12.636;2023-05-10T00:34:57;2.70;;;2.43;;
4758;SDS011;2393;50.560;12.636;2023-05-10T00:37:26;4.10;;;3.17;;
4758;SDS011;2393;50.560;12.636;2023-05-10T00:39:55;5.13;;;2.37;;
4758;SDS011;2393;50.560;12.636;2023-05-10T00:42:23;3.03;;;2.40;;
4758;SDS011;2393;50.560;12.636;2023-05-10T00:44:53;2.53;;;2.33;;
4758;SDS011;2393;50.560;12.636;2023-05-10T00:47:21;2.83;;;2.50;;
4758;SDS011;2393;50.560;12.636;2023-05-10T00:49:49;2.97;;;2.63;;
4758;SDS011;2393;50.560;12.636;2023-05-10T00:52:17;6.20;;;3.00;;
4758;SDS011;2393;50.560;12.636;2023-05-10T00:54:46;3.07;;;2.80;;
4758;SDS011;2393;50.560;12.636;2023-05-10T00:57:17;2.17;;;2.07;;
4758;SDS011;2393;50.560;12.636;2023-05-10T00:59:45;2.70;;;2.50;;
4758;SDS011;2393;50.560;12.636;2023-05-10T01:02:13;2.60;;;2.40;;
4758;SDS011;2393;50.560;12.636;2023-05-10T01:04:41;4.10;;;1.93;;
4758;SDS011;2393;50.560;12.636;2023-05-10T01:07:10;6.93;;;2.53;;
4758;SDS011;2393;50.560;12.636;2023-05-10T01:09:38;4.93;;;2.77;;
4758;SDS011;2393;50.560;12.636;2023-05-10T01:12:06;3.50;;;2.23;;
4758;SDS011;2393;50.560;12.636;2023-05-10T01:14:36;3.30;;;2.50;;
4758;SDS011;2393;50.560;12.636;2023-05-10T01:17:05;2.70;;;2.50;;
4758;SDS011;2393;50.560;12.636;2023-05-10T01:19:36;3.10;;;2.87;;
4758;SDS011;2393;50.560;12.636;2023-05-10T01:22:06;2.80;;;2.43;;
4758;SDS011;2393;50.560;12.636;2023-05-10T01:24:56;8.53;;;2.97;;
4758;SDS011;2393;50.560;12.636;2023-05-10T01:28:04;3.13;;;2.77;;
4758;SDS011;2393;50.560;12.636;2023-05-10T01:30:55;2.93;;;2.57;;
4758;SDS011;2393;50.560;12.636;2023-05-10T01:33:44;3.77;;;1.90;;
4758;SDS011;2393;50.560;12.636;2023-05-10T01:36:19;3.67;;;2.63;;
4758;SDS011;2393;50.560;12.636;2023-05-10T01:38:56;2.87;;;2.37;;
4758;SDS011;2393;50.560;12.636;2023-05-10T01:41:32;5.50;;;2.83;;
4758;SDS011;2393;50.560;12.636;2023-05-10T01:44:09;3.23;;;2.63;;
4758;SDS011;2393;50.560;12.636;2023-05-10T01:46:42;4.40;;;2.87;;
4758;SDS011;2393;50.560;12.636;2023-05-10T01:49:13;3.60;;;3.13;;
4758;SDS011;2393;50.560;12.636;2023-05-10T01:51:58;3.60;;;2.63;;
4758;SDS011;2393;50.560;12.636;2023-05-10T01:54:31;3.73;;;2.70;;
4758;SDS011;2393;50.560;12.636;2023-05-10T01:57:02;2.77;;;2.57;;
4758;SDS011;2393;50.560;12.636;2023-05-10T01:59:34;4.00;;;2.40;;
4758;SDS011;2393;50.560;12.636;2023-05-10T02:02:07;3.60;;;2.40;;
4758;SDS011;2393;50.560;12.636;2023-05-10T02:04:39;2.70;;;2.50;;
4758;SDS011;2393;50.560;12.636;2023-05-10T02:07:09;2.17;;;2.07;;
4758;SDS011;2393;50.560;12.636;2023-05-10T02:09:37;3.67;;;2.90;;
4758;SDS011;2393;50.560;12.636;2023-05-10T02:12:06;3.10;;;2.77;;
4758;SDS011;2393;50.560;12.636;2023-05-10T02:14:35;4.83;;;2.90;;
4758;SDS011;2393;50.560;12.636;2023-05-10T02:17:06;2.60;;;2.40;;
4758;SDS011;2393;50.560;12.636;2023-05-10T02:19:36;3.60;;;2.70;;
4758;SDS011;2393;50.560;12.636;2023-05-10T02:22:09;6.90;;;2.50;;
4758;SDS011;2393;50.560;12.636;2023-05-10T02:24:37;2.47;;;2.27;;
4758;SDS011;2393;50.560;12.636;2023-05-10T02:27:07;3.07;;;2.37;;
4758;SDS011;2393;50.560;12.636;2023-05-10T02:29:37;2.93;;;2.70;;
4758;SDS011;2393;50.560;12.636;2023-05-10T02:32:06;2.37;;;2.27;;
4758;SDS011;2393;50.560;12.636;2023-05-10T02:34:36;2.30;;;2.10;;
4758;SDS011;2393;50.560;12.636;2023-05-10T02:37:04;2.93;;;2.50;;
4758;SDS011;2393;50.560;12.636;2023-05-10T02:39:34;2.53;;;1.93;;
4758;SDS011;2393;50.560;12.636;2023-05-10T02:42:03;2.67;;;2.47;;
4758;SDS011;2393;50.560;12.636;2023-05-10T02:44:32;12.00;;;4.13;;
4758;SDS011;2393;50.560;12.636;2023-05-10T02:47:02;3.57;;;2.53;;
4758;SDS011;2393;50.560;12.636;2023-05-10T02:49:30;2.60;;;2.40;;
4758;SDS011;2393;50.560;12.636;2023-05-10T02:52:00;3.33;;;3.10;;
4758;SDS011;2393;50.560;12.636;2023-05-10T02:54:36;2.77;;;2.57;;
4758;SDS011;2393;50.560;12.636;2023-05-10T02:57:12;3.27;;;2.80;;
4758;SDS011;2393;50.560;12.636;2023-05-10T02:59:45;7.57;;;3.90;;
4758;SDS011;2393;50.560;12.636;2023-05-10T03:02:14;3.23;;;2.93;;
4758;SDS011;2393;50.560;12.636;2023-05-10T03:04:42;2.83;;;2.63;;
4758;SDS011;2393;50.560;12.636;2023-05-10T03:07:10;3.50;;;3.10;;
4758;SDS011;2393;50.560;12.636;2023-05-10T03:09:40;4.03;;;3.10;;
4758;SDS011;2393;50.560;12.636;2023-05-10T03:12:11;7.33;;;3.10;;
4758;SDS011;2393;50.560;12.636;2023-05-10T03:14:49;3.37;;;2.80;;
4758;SDS011;2393;50.560;12.636;2023-05-10T03:17:29;2.90;;;2.50;;
4758;SDS011;2393;50.560;12.636;2023-05-10T03:19:59;2.43;;;2.23;;
4758;SDS011;2393;50.560;12.636;2023-05-10T03:22:32;2.90;;;2.10;;
4758;SDS011;2393;50.560;12.636;2023-05-10T03:25:06;4.17;;;2.47;;
4758;SDS011;2393;50.560;12.636;2023-05-10T03:27:41;2.63;;;2.33;;
4758;SDS011;2393;50.560;12.636;2023-05-10T03:30:11;5.73;;;2.83;;
4758;SDS011;2393;50.560;12.636;2023-05-10T03:32:41;5.30;;;2.93;;
4758;SDS011;2393;50.560;12.636;2023-05-10T03:35:09;3.27;;;2.20;;
4758;SDS011;2393;50.560;12.636;2023-05-10T03:37:38;4.93;;;2.50;;
4758;SDS011;2393;50.560;12.636;2023-05-10T03:40:08;2.87;;;2.70;;
4758;SDS011;2393;50.560;12.636;2023-05-10T03:42:39;2.37;;;2.13;;
4758;SDS011;2393;50.560;12.636;2023-05-10T03:45:08;2.70;;;2.50;;
4758;SDS011;2393;50.560;12.636;2023-05-10T03:47:37;3.40;;;2.77;;
4758;SDS011;2393;50.560;12.636;2023-05-10T03:50:05;2.67;;;2.40;;
4758;SDS011;2393;50.560;12.636;2023-05-10T03:52:34;3.37;;;2.50;;
4758;SDS011;2393;50.560;12.636;2023-05-10T03:55:02;2.83;;;2.40;;
4758;SDS011;2393;50.560;12.636;2023-05-10T03:57:32;2.10;;;1.90;;
4758;SDS011;2393;50.560;12.636;2023-05-10T04:00:00;2.83;;;2.63;;
4758;SDS011;2393;50.560;12.636;2023-05-10T04:02:39;1.90;;;1.80;;
4758;SDS011;2393;50.560;12.636;2023-05-10T04:05:14;3.37;;;2.63;;
4758;SDS011;2393;50.560;12.636;2023-05-10T04:07:42;2.70;;;2.30;;
4758;SDS011;2393;50.560;12.636;2023-05-10T04:10:11;2.87;;;2.67;;
4758;SDS011;2393;50.560;12.636;2023-05-10T04:12:41;4.70;;;2.50;;
4758;SDS011;2393;50.560;12.636;2023-05-10T04:15:09;6.60;;;3.30;;
4758;SDS011;2393;50.560;12.636;2023-05-10T04:17:37;4.47;;;2.70;;
4758;SDS011;2393;50.560;12.636;2023-05-10T04:20:06;3.30;;;2.93;;
4758;SDS011;2393;50.560;12.636;2023-05-10T04:22:35;2.03;;;1.93;;
4758;SDS011;2393;50.560;12.636;2023-05-10T04:25:03;6.00;;;2.97;;
4758;SDS011;2393;50.560;12.636;2023-05-10T04:27:32;2.63;;;2.43;;
4758;SDS011;2393;50.560;12.636;2023-05-10T04:30:01;3.57;;;3.10;;
4758;SDS011;2393;50.560;12.636;2023-05-10T04:32:30;6.93;;;2.77;;
4758;SDS011;2393;50.560;12.636;2023-05-10T04:34:58;3.20;;;2.90;;
4758;SDS011;2393;50.560;12.636;2023-05-10T04:37:29;2.63;;;2.43;;
4758;SDS011;2393;50.560;12.636;2023-05-10T04:39:57;5.47;;;4.10;;
4758;SDS011;2393;50.560;12.636;2023-05-10T04:42:26;3.50;;;3.20;;
4758;SDS011;2393;50.560;12.636;2023-05-10T04:44:54;2.47;;;2.27;;
4758;SDS011;2393;50.560;12.636;2023-05-10T04:47:23;2.90;;;2.70;;
4758;SDS011;2393;50.560;12.636;2023-05-10T04:49:51;2.60;;;2.40;;
4758;SDS011;2393;50.560;12.636;2023-05-10T04:52:19;2.20;;;2.00;;
4758;SDS011;2393;50.560;12.636;2023-05-10T04:54:47;2.60;;;2.40;;
4758;SDS011;2393;50.560;12.636;2023-05-10T04:57:15;2.63;;;2.43;;
4758;SDS011;2393;50.560;12.636;2023-05-10T04:59:43;2.70;;;2.00;;
4758;SDS011;2393;50.560;12.636;2023-05-10T05:02:15;7.13;;;2.80;;
4758;SDS011;2393;50.560;12.636;2023-05-10T05:04:44;5.07;;;3.07;;
4758;SDS011;2393;50.560;12.636;2023-05-10T05:07:12;3.30;;;2.63;;
4758;SDS011;2393;50.560;12.636;2023-05-10T05:09:40;3.50;;;3.20;;
4758;SDS011;2393;50.560;12.636;2023-05-10T05:12:08;2.40;;;2.30;;
4758;SDS011;2393;50.560;12.636;2023-05-10T05:14:40;2.63;;;2.40;;
4758;SDS011;2393;50.560;12.636;2023-05-10T05:17:08;4.17;;;3.10;;
4758;SDS011;2393;50.560;12.636;2023-05-10T05:19:36;3.70;;;2.40;;
4758;SDS011;2393;50.560;12.636;2023-05-10T05:22:07;5.73;;;3.20;;
4758;SDS011;2393;50.560;12.636;2023-05-10T05:24:35;11.63;;;3.40;;
4758;SDS011;2393;50.560;12.636;2023-05-10T05:27:04;3.50;;;2.97;;
4758;SDS011;2393;50.560;12.636;2023-05-10T05:29:33;9.73;;;4.20;;
4758;SDS011;2393;50.560;12.636;2023-05-10T05:32:01;4.40;;;2.93;;
4758;SDS011;2393;50.560;12.636;2023-05-10T05:34:29;3.10;;;2.83;;
4758;SDS011;2393;50.560;12.636;2023-05-10T05:36:57;2.77;;;2.20;;
4758;SDS011;2393;50.560;12.636;2023-05-10T05:39:27;2.43;;;2.20;;
4758;SDS011;2393;50.560;12.636;2023-05-10T05:41:55;3.37;;;3.07;;
4758;SDS011;2393;50.560;12.636;2023-05-10T05:44:23;3.10;;;2.80;;
4758;SDS011;2393;50.560;12.636;2023-05-10T05:46:51;5.00;;;2.30;;
4758;SDS011;2393;50.560;12.636;2023-05-10T05:49:20;2.90;;;2.70;;
4758;SDS011;2393;50.560;12.636;2023-05-10T05:51:48;3.57;;;2.90;;
4758;SDS011;2393;50.560;12.636;2023-05-10T05:54:16;5.50;;;3.00;;
4758;SDS011;2393;50.560;12.636;2023-05-10T05:56:46;3.17;;;2.63;;
4758;SDS011;2393;50.560;12.636;2023-05-10T05:59:14;2.10;;;2.00;;
4758;SDS011;2393;50.560;12.636;2023-05-10T06:01:42;3.23;;;2.93;;
4758;SDS011;2393;50.560;12.636;2023-05-10T06:04:10;2.77;;;2.47;;
4758;SDS011;2393;50.560;12.636;2023-05-10T06:06:39;4.87;;;2.60;;
4758;SDS011;2393;50.560;12.636;2023-05-10T06:09:07;6.07;;;2.23;;
4758;SDS011;2393;50.560;12.636;2023-05-10T06:11:35;3.13;;;2.83;;
4758;SDS011;2393;50.560;12.636;2023-05-10T06:14:05;3.43;;;2.60;;
4758;SDS011;2393;50.560;12.636;2023-05-10T06:16:33;2.10;;;2.00;;
4758;SDS011;2393;50.560;12.636;2023-05-10T06:19:01;11.10;;;2.13;;
4758;SDS011;2393;50.560;12.636;2023-05-10T06:21:30;5.80;;;2.70;;
4758;SDS011;2393;50.560;12.636;2023-05-10T06:23:58;2.90;;;2.60;;
4758;SDS011;2393;50.560;12.636;2023-05-10T06:26:27;6.00;;;2.90;;
4758;SDS011;2393;50.560;12.636;2023-05-10T06:28:55;2.77;;;2.57;;
4758;SDS011;2393;50.560;12.636;2023-05-10T06:31:24;4.83;;;2.70;;
4758;SDS011;2393;50.560;12.636;2023-05-10T06:33:52;3.50;;;2.90;;
4758;SDS011;2393;50.560;12.636;2023-05-10T06:36:22;3.83;;;2.60;;
4758;SDS011;2393;50.560;12.636;2023-05-10T06:38:51;5.33;;;3.23;;
4758;SDS011;2393;50.560;12.636;2023-05-10T06:41:20;5.20;;;2.53;;
4758;SDS011;2393;50.560;12.636;2023-05-10T06:43:50;3.27;;;2.80;;
4758;SDS011;2393;50.560;12.636;2023-05-10T06:46:18;2.97;;;2.77;;
4758;SDS011;2393;50.560;12.636;2023-05-10T06:48:47;4.40;;;2.40;;
4758;SDS011;2393;50.560;12.636;2023-05-10T06:51:16;2.90;;;2.70;;
4758;SDS011;2393;50.560;12.636;2023-05-10T06:53:44;4.77;;;2.60;;
4758;SDS011;2393;50.560;12.636;2023-05-10T06:56:12;4.80;;;2.93;;
4758;SDS011;2393;50.560;12.636;2023-05-10T06:58:40;3.40;;;3.10;;
4758;SDS011;2393;50.560;12.636;2023-05-10T07:01:08;5.93;;;2.63;;
4758;SDS011;2393;50.560;12.636;2023-05-10T07:03:37;4.23;;;2.83;;
4758;SDS011;2393;50.560;12.636;2023-05-10T07:06:06;12.40;;;3.13;;
4758;SDS011;2393;50.560;12.636;2023-05-10T07:08:47;2.70;;;2.47;;
4758;SDS011;2393;50.560;12.636;2023-05-10T07:11:15;2.83;;;2.63;;
4758;SDS011;2393;50.560;12.636;2023-05-10T07:13:43;3.90;;;3.10;;
4758;SDS011;2393;50.560;12.636;2023-05-10T07:16:12;6.63;;;2.50;;
4758;SDS011;2393;50.560;12.636;2023-05-10T07:18:40;4.57;;;2.80;;
4758;SDS011;2393;50.560;12.636;2023-05-10T07:21:10;9.47;;;3.00;;
4758;SDS011;2393;50.560;12.636;2023-05-10T07:23:38;2.80;;;2.53;;
4758;SDS011;2393;50.560;12.636;2023-05-10T07:26:08;3.50;;;3.10;;
4758;SDS011;2393;50.560;12.636;2023-05-10T07:28:38;4.60;;;2.80;;
4758;SDS011;2393;50.560;12.636;2023-05-10T07:31:06;5.87;;;4.30;;
4758;SDS011;2393;50.560;12.636;2023-05-10T07:33:34;4.60;;;3.80;;
4758;SDS011;2393;50.560;12.636;2023-05-10T07:36:02;4.00;;;3.50;;
4758;SDS011;2393;50.560;12.636;2023-05-10T07:38:31;4.77;;;4.00;;
4758;SDS011;2393;50.560;12.636;2023-05-10T07:40:59;7.20;;;3.60;;
4758;SDS011;2393;50.560;12.636;2023-05-10T07:43:27;13.30;;;5.70;;
4758;SDS011;2393;50.560;12.636;2023-05-10T07:45:55;4.47;;;4.07;;
4758;SDS011;2393;50.560;12.636;2023-05-10T07:48:26;6.43;;;4.07;;
4758;SDS011;2393;50.560;12.636;2023-05-10T07:50:54;4.63;;;4.23;;
4758;SDS011;2393;50.560;12.636;2023-05-10T07:53:22;5.03;;;3.83;;
4758;SDS011;2393;50.560;12.636;2023-05-10T07:55:51;5.23;;;4.10;;
4758;SDS011;2393;50.560;12.636;2023-05-10T07:58:24;6.07;;;3.47;;
4758;SDS011;2393;50.560;12.636;2023-05-10T08:00:53;7.83;;;3.83;;
4758;SDS011;2393;50.560;12.636;2023-05-10T08:03:21;4.57;;;3.87;;
4758;SDS011;2393;50.560;12.636;2023-05-10T08:05:49;5.37;;;2.90;;
4758;SDS011;2393;50.560;12.636;2023-05-10T08:08:17;9.37;;;4.30;;
4758;SDS011;2393;50.560;12.636;2023-05-10T08:10:46;7.43;;;4.73;;
4758;SDS011;2393;50.560;12.636;2023-05-10T08:13:15;3.40;;;3.07;;
4758;SDS011;2393;50.560;12.636;2023-05-10T08:15:43;6.10;;;4.67;;
4758;SDS011;2393;50.560;12.636;2023-05-10T08:18:11;6.93;;;4.20;;
4758;SDS011;2393;50.560;12.636;2023-05-10T08:20:39;6.00;;;3.53;;
4758;SDS011;2393;50.560;12.636;2023-05-10T08:23:07;4.23;;;3.50;;
4758;SDS011;2393;50.560;12.636;2023-05-10T08:25:36;6.40;;;4.13;;
4758;SDS011;2393;50.560;12.636;2023-05-10T08:28:04;11.13;;;5.67;;
4758;SDS011;2393;50.560;12.636;2023-05-10T08:30:33;15.13;;;7.97;;
4758;SDS011;2393;50.560;12.636;2023-05-10T08:33:01;7.83;;;5.37;;
4758;SDS011;2393;50.560;12.636;2023-05-10T08:35:29;4.77;;;4.27;;
4758;SDS011;2393;50.560;12.636;2023-05-10T08:37:57;5.37;;;3.50;;
4758;SDS011;2393;50.560;12.636;2023-05-10T08:40:26;3.97;;;3.67;;
4758;SDS011;2393;50.560;12.636;2023-05-10T08:42:55;5.20;;;4.00;;
4758;SDS011;2393;50.560;12.636;2023-05-10T08:45:26;4.83;;;4.03;;
4758;SDS011;2393;50.560;12.636;2023-05-10T08:48:00;4.27;;;3.87;;
4758;SDS011;2393;50.560;12.636;2023-05-10T08:50:29;4.90;;;4.40;;
4758;SDS011;2393;50.560;12.636;2023-05-10T08:52:59;4.27;;;3.97;;
4758;SDS011;2393;50.560;12.636;2023-05-10T08:55:31;6.83;;;4.70;;
4758;SDS011;2393;50.560;12.636;2023-05-10T08:58:00;3.50;;;3.07;;
4758;SDS011;2393;50.560;12.636;2023-05-10T09:00:28;3.97;;;3.13;;
4758;SDS011;2393;50.560;12.636;2023-05-10T09:02:57;4.00;;;2.87;;
4758;SDS011;2393;50.560;12.636;2023-05-10T09:05:27;4.07;;;3.77;;
4758;SDS011;2393;50.560;12.636;2023-05-10T09:07:55;3.70;;;3.33;;
4758;SDS011;2393;50.560;12.636;2023-05-10T09:10:23;6.27;;;3.40;;
4758;SDS011;2393;50.560;12.636;2023-05-10T09:12:53;6.70;;;3.80;;
4758;SDS011;2393;50.560;12.636;2023-05-10T09:15:24;4.93;;;2.97;;
4758;SDS011;2393;50.560;12.636;2023-05-10T09:17:53;4.73;;;3.07;;
4758;SDS011;2393;50.560;12.636;2023-05-10T09:20:22;3.80;;;3.50;;
4758;SDS011;2393;50.560;12.636;2023-05-10T09:22:51;4.03;;;3.60;;
4758;SDS011;2393;50.560;12.636;2023-05-10T09:25:19;10.50;;;2.60;;
4758;SDS011;2393;50.560;12.636;2023-05-10T09:27:49;3.43;;;3.13;;
4758;SDS011;2393;50.560;12.636;2023-05-10T09:30:18;3.20;;;2.90;;
4758;SDS011;2393;50.560;12.636;2023-05-10T09:32:52;4.27;;;3.80;;
4758;SDS011;2393;50.560;12.636;2023-05-10T09:35:21;3.63;;;2.87;;
4758;SDS011;2393;50.560;12.636;2023-05-10T09:37:55;3.33;;;2.97;;
4758;SDS011;2393;50.560;12.636;2023-05-10T09:40:25;3.10;;;2.80;;
4758;SDS011;2393;50.560;12.636;2023-05-10T09:42:54;3.50;;;3.20;;
4758;SDS011;2393;50.560;12.636;2023-05-10T09:45:25;3.70;;;2.83;;
4758;SDS011;2393;50.560;12.636;2023-05-10T09:47:54;3.30;;;3.00;;
4758;SDS011;2393;50.560;12.636;2023-05-10T09:50:23;4.17;;;3.20;;
4758;SDS011;2393;50.560;12.636;2023-05-10T09:52:52;4.40;;;3.03;;
4758;SDS011;2393;50.560;12.636;2023-05-10T09:55:23;3.10;;;2.90;;
4758;SDS011;2393;50.560;12.636;2023-05-10T09:57:58;3.37;;;3.07;;
4758;SDS011;2393;50.560;12.636;2023-05-10T10:00:27;4.20;;;2.70;;
4758;SDS011;2393;50.560;12.636;2023-05-10T10:02:56;2.77;;;2.57;;
4758;SDS011;2393;50.560;12.636;2023-05-10T10:05:27;3.40;;;3.10;;
4758;SDS011;2393;50.560;12.636;2023-05-10T10:07:56;4.20;;;3.17;;
4758;SDS011;2393;50.560;12.636;2023-05-10T10:10:26;2.70;;;2.50;;
4758;SDS011;2393;50.560;12.636;2023-05-10T10:12:55;3.23;;;3.00;;
4758;SDS011;2393;50.560;12.636;2023-05-10T10:15:23;3.57;;;2.60;;
4758;SDS011;2393;50.560;12.636;2023-05-10T10:17:52;6.33;;;2.60;;
4758;SDS011;2393;50.560;12.636;2023-05-10T10:20:21;3.70;;;3.33;;
4758;SDS011;2393;50.560;12.636;2023-05-10T10:22:51;2.93;;;2.77;;
4758;SDS011;2393;50.560;12.636;2023-05-10T10:25:20;9.17;;;3.77;;
4758;SDS011;2393;50.560;12.636;2023-05-10T10:27:55;3.90;;;3.60;;
4758;SDS011;2393;50.560;12.636;2023-05-10T10:30:36;3.57;;;3.33;;
4758;SDS011;2393;50.560;12.636;2023-05-10T10:33:16;3.43;;;3.13;;
4758;SDS011;2393;50.560;12.636;2023-05-10T10:35:58;2.50;;;2.30;;
4758;SDS011;2393;50.560;12.636;2023-05-10T10:38:35;3.90;;;3.60;;
4758;SDS011;2393;50.560;12.636;2023-05-10T10:41:09;3.10;;;2.83;;
4758;SDS011;2393;50.560;12.636;2023-05-10T10:43:39;4.03;;;3.50;;
4758;SDS011;2393;50.560;12.636;2023-05-10T10:46:11;4.13;;;3.50;;
4758;SDS011;2393;50.560;12.636;2023-05-10T10:48:41;4.33;;;2.93;;
4758;SDS011;2393;50.560;12.636;2023-05-10T10:51:14;5.23;;;3.80;;
4758;SDS011;2393;50.560;12.636;2023-05-10T10:53:42;4.20;;;2.27;;
4758;SDS011;2393;50.560;12.636;2023-05-10T10:56:11;2.77;;;2.57;;
4758;SDS011;2393;50.560;12.636;2023-05-10T10:58:48;4.10;;;2.90;;
4758;SDS011;2393;50.560;12.636;2023-05-10T11:01:19;2.90;;;2.70;;
4758;SDS011;2393;50.560;12.636;2023-05-10T11:06:48;6.83;;;2.37;;
4758;SDS011;2393;50.560;12.636;2023-05-10T11:09:16;1.70;;;1.57;;
4758;SDS011;2393;50.560;12.636;2023-05-10T11:11:48;2.40;;;2.20;;
4758;SDS011;2393;50.560;12.636;2023-05-10T11:14:21;2.07;;;1.97;;
4758;SDS011;2393;50.560;12.636;2023-05-10T11:16:49;2.03;;;1.80;;
4758;SDS011;2393;50.560;12.636;2023-05-10T11:19:17;1.77;;;1.67;;
4758;SDS011;2393;50.560;12.636;2023-05-10T11:21:47;1.70;;;1.60;;
4758;SDS011;2393;50.560;12.636;2023-05-10T11:24:17;2.00;;;1.70;;
4758;SDS011;2393;50.560;12.636;2023-05-10T11:26:49;1.43;;;1.43;;
4758;SDS011;2393;50.560;12.636;2023-05-10T11:29:18;2.10;;;1.90;;
4758;SDS011;2393;50.560;12.636;2023-05-10T11:31:48;2.20;;;1.43;;
4758;SDS011;2393;50.560;12.636;2023-05-10T11:34:23;2.80;;;2.00;;
4758;SDS011;2393;50.560;12.636;2023-05-10T11:36:52;1.70;;;1.60;;
4758;SDS011;2393;50.560;12.636;2023-05-10T11:39:25;1.90;;;1.80;;
4758;SDS011;2393;50.560;12.636;2023-05-10T11:41:54;3.33;;;1.97;;
4758;SDS011;2393;50.560;12.636;2023-05-10T11:44:23;2.27;;;2.07;;
4758;SDS011;2393;50.560;12.636;2023-05-10T11:46:59;1.77;;;1.70;;
4758;SDS011;2393;50.560;12.636;2023-05-10T11:49:27;1.50;;;1.47;;
4758;SDS011;2393;50.560;12.636;2023-05-10T11:52:03;2.20;;;1.47;;
4758;SDS011;2393;50.560;12.636;2023-05-10T11:54:31;1.67;;;1.57;;
4758;SDS011;2393;50.560;12.636;2023-05-10T11:57:01;3.13;;;1.60;;
4758;SDS011;2393;50.560;12.636;2023-05-10T11:59:30;2.40;;;1.93;;
4758;SDS011;2393;50.560;12.636;2023-05-10T12:01:59;1.53;;;1.30;;
4758;SDS011;2393;50.560;12.636;2023-05-10T12:04:27;1.97;;;1.87;;
4758;SDS011;2393;50.560;12.636;2023-05-10T12:06:56;1.50;;;1.40;;
4758;SDS011;2393;50.560;12.636;2023-05-10T12:09:25;2.77;;;1.57;;
4758;SDS011;2393;50.560;12.636;2023-05-10T12:12:08;1.40;;;1.40;;
4758;SDS011;2393;50.560;12.636;2023-05-10T12:14:36;1.30;;;1.30;;
4758;SDS011;2393;50.560;12.636;2023-05-10T12:17:06;1.57;;;1.47;;
4758;SDS011;2393;50.560;12.636;2023-05-10T12:19:38;1.60;;;1.50;;
4758;SDS011;2393;50.560;12.636;2023-05-10T12:22:07;1.53;;;0.97;;
4758;SDS011;2393;50.560;12.636;2023-05-10T12:24:35;1.97;;;1.87;;
4758;SDS011;2393;50.560;12.636;2023-05-10T12:27:04;1.73;;;1.63;;
4758;SDS011;2393;50.560;12.636;2023-05-10T12:29:34;1.80;;;1.70;;
4758;SDS011;2393;50.560;12.636;2023-05-10T12:32:02;1.60;;;1.50;;
4758;SDS011;2393;50.560;12.636;2023-05-10T12:34:33;0.97;;;0.97;;
4758;SDS011;2393;50.560;12.636;2023-05-10T12:37:02;1.03;;;1.00;;
4758;SDS011;2393;50.560;12.636;2023-05-10T12:39:38;0.70;;;0.70;;
4758;SDS011;2393;50.560;12.636;2023-05-10T12:42:07;1.20;;;1.20;;
4758;SDS011;2393;50.560;12.636;2023-05-10T12:44:35;1.57;;;1.53;;
4758;SDS011;2393;50.560;12.636;2023-05-10T12:47:03;1.13;;;1.13;;
4758;SDS011;2393;50.560;12.636;2023-05-10T12:49:33;1.23;;;1.23;;
4758;SDS011;2393;50.560;12.636;2023-05-10T12:52:01;1.07;;;1.07;;
4758;SDS011;2393;50.560;12.636;2023-05-10T12:54:29;1.17;;;1.17;;
4758;SDS011;2393;50.560;12.636;2023-05-10T12:56:58;1.10;;;1.10;;
4758;SDS011;2393;50.560;12.636;2023-05-10T12:59:26;1.10;;;1.00;;
4758;SDS011;2393;50.560;12.636;2023-05-10T13:01:54;1.10;;;1.10;;
4758;SDS011;2393;50.560;12.636;2023-05-10T13:04:22;1.37;;;1.27;;
4758;SDS011;2393;50.560;12.636;2023-05-10T13:06:51;1.17;;;1.17;;
4758;SDS011;2393;50.560;12.636;2023-05-10T13:09:19;1.13;;;0.93;;
4758;SDS011;2393;50.560;12.636;2023-05-10T13:11:47;0.90;;;0.90;;
4758;SDS011;2393;50.560;12.636;2023-05-10T13:14:16;0.80;;;0.80;;
4758;SDS011;2393;50.560;12.636;2023-05-10T13:16:46;0.90;;;0.90;;
4758;SDS011;2393;50.560;12.636;2023-05-10T13:19:15;1.03;;;0.93;;
4758;SDS011;2393;50.560;12.636;2023-05-10T13:21:43;0.70;;;0.67;;
4758;SDS011;2393;50.560;12.636;2023-05-10T13:24:13;2.10;;;1.20;;
4758;SDS011;2393;50.560;12.636;2023-05-10T13:26:41;1.30;;;1.20;;
4758;SDS011;2393;50.560;12.636;2023-05-10T13:29:10;1.70;;;1.60;;
4758;SDS011;2393;50.560;12.636;2023-05-10T13:31:38;1.40;;;1.30;;
4758;SDS011;2393;50.560;12.636;2023-05-10T13:34:06;1.30;;;1.30;;
4758;SDS011;2393;50.560;12.636;2023-05-10T13:36:34;1.63;;;1.53;;
4758;SDS011;2393;50.560;12.636;2023-05-10T13:39:02;3.30;;;2.50;;
4758;SDS011;2393;50.560;12.636;2023-05-10T13:41:33;7.83;;;4.47;;
4758;SDS011;2393;50.560;12.636;2023-05-10T13:44:01;39.70;;;11.97;;
4758;SDS011;2393;50.560;12.636;2023-05-10T13:46:29;27.90;;;10.90;;
4758;SDS011;2393;50.560;12.636;2023-05-10T13:48:57;16.97;;;7.23;;
4758;SDS011;2393;50.560;12.636;2023-05-10T13:51:25;12.33;;;6.70;;
4758;SDS011;2393;50.560;12.636;2023-05-10T13:53:53;5.67;;;3.00;;
4758;SDS011;2393;50.560;12.636;2023-05-10T13:56:21;9.07;;;6.10;;
4758;SDS011;2393;50.560;12.636;2023-05-10T13:58:50;6.90;;;4.90;;
4758;SDS011;2393;50.560;12.636;2023-05-10T14:01:18;1.97;;;1.87;;
4758;SDS011;2393;50.560;12.636;2023-05-10T14:03:47;1.67;;;1.57;;
4758;SDS011;2393;50.560;12.636;2023-05-10T14:06:15;1.40;;;1.40;;
4758;SDS011;2393;50.560;12.636;2023-05-10T14:08:43;2.63;;;2.43;;
4758;SDS011;2393;50.560;12.636;2023-05-10T14:11:12;1.73;;;1.63;;
4758;SDS011;2393;50.560;12.636;2023-05-10T14:13:40;2.50;;;1.63;;
4758;SDS011;2393;50.560;12.636;2023-05-10T14:16:09;5.50;;;1.90;;
4758;SDS011;2393;50.560;12.636;2023-05-10T14:18:37;3.00;;;2.33;;
4758;SDS011;2393;50.560;12.636;2023-05-10T14:21:05;1.97;;;1.67;;
4758;SDS011;2393;50.560;12.636;2023-05-10T14:23:36;1.93;;;1.83;;
4758;SDS011;2393;50.560;12.636;2023-05-10T14:26:07;1.33;;;1.23;;
4758;SDS011;2393;50.560;12.636;2023-05-10T14:28:35;2.07;;;1.97;;
4758;SDS011;2393;50.560;12.636;2023-05-10T14:31:03;2.20;;;1.77;;
4758;SDS011;2393;50.560;12.636;2023-05-10T14:33:33;2.17;;;2.07;;
4758;SDS011;2393;50.560;12.636;2023-05-10T14:36:01;1.83;;;1.73;;
4758;SDS011;2393;50.560;12.636;2023-05-10T14:38:29;11.93;;;2.43;;
4758;SDS011;2393;50.560;12.636;2023-05-10T14:40:57;2.53;;;2.33;;
4758;SDS011;2393;50.560;12.636;2023-05-10T14:43:28;2.97;;;2.47;;
4758;SDS011;2393;50.560;12.636;2023-05-10T14:45:56;2.43;;;2.23;;
4758;SDS011;2393;50.560;12.636;2023-05-10T14:48:25;2.70;;;2.50;;
4758;SDS011;2393;50.560;12.636;2023-05-10T14:50:54;2.70;;;2.47;;
4758;SDS011;2393;50.560;12.636;2023-05-10T14:53:22;2.50;;;2.30;;
4758;SDS011;2393;50.560;12.636;2023-05-10T14:55:50;2.70;;;1.93;;
4758;SDS011;2393;50.560;12.636;2023-05-10T14:58:18;2.23;;;1.80;;
4758;SDS011;2393;50.560;12.636;2023-05-10T15:00:46;2.53;;;2.30;;
4758;SDS011;2393;50.560;12.636;2023-05-10T15:03:15;2.90;;;2.40;;
4758;SDS011;2393;50.560;12.636;2023-05-10T15:05:44;2.10;;;2.00;;
4758;SDS011;2393;50.560;12.636;2023-05-10T15:08:13;2.50;;;2.17;;
4758;SDS011;2393;50.560;12.636;2023-05-10T15:10:41;2.00;;;1.90;;
4758;SDS011;2393;50.560;12.636;2023-05-10T15:13:09;1.43;;;1.43;;
4758;SDS011;2393;50.560;12.636;2023-05-10T15:15:37;2.30;;;2.13;;
4758;SDS011;2393;50.560;12.636;2023-05-10T15:18:05;1.90;;;1.80;;